createdAt,value
2019-01-14T00:00:27.904Z,4.10
2019-01-14T00:03:01.156Z,3.80
2019-01-14T00:05:33.074Z,2.80
2019-01-14T00:08:16.039Z,3.87
2019-01-14T00:10:42.890Z,2.90
2019-01-14T00:13:14.487Z,2.87
2019-01-14T00:15:44.828Z,2.83
2019-01-14T00:18:15.675Z,2.50
2019-01-14T00:20:56.614Z,3.10
2019-01-14T00:23:36.773Z,3.63
2019-01-14T00:26:14.941Z,2.57
2019-01-14T00:28:45.704Z,2.73
2019-01-14T00:31:25.355Z,2.67
2019-01-14T00:33:59.888Z,3.23
2019-01-14T00:36:30.246Z,2.87
2019-01-14T00:39:07.682Z,3.00
2019-01-14T00:41:40.524Z,5.40
2019-01-14T00:44:27.449Z,4.40
2019-01-14T00:46:57.846Z,4.03
2019-01-14T00:49:28.798Z,2.60
2019-01-14T00:52:00.341Z,3.83
2019-01-14T00:54:30.783Z,2.73
2019-01-14T00:57:01.771Z,8.43
2019-01-14T00:59:32.980Z,2.47
2019-01-14T01:02:04.461Z,3.10
2019-01-14T01:04:35.665Z,3.07
2019-01-14T01:07:05.812Z,3.10
2019-01-14T01:09:36.239Z,3.23
2019-01-14T01:12:06.414Z,2.87
2019-01-14T01:14:37.989Z,4.67
2019-01-14T01:17:12.717Z,3.17
2019-01-14T01:19:44.335Z,2.93
2019-01-14T01:22:15.185Z,3.40
2019-01-14T01:24:45.518Z,3.37
2019-01-14T01:27:16.520Z,5.03
2019-01-14T01:29:50.655Z,2.70
2019-01-14T01:32:21.056Z,3.50
2019-01-14T01:34:52.069Z,3.30
2019-01-14T01:37:23.354Z,6.30
2019-01-14T01:39:54.534Z,4.10
2019-01-14T01:42:25.125Z,3.00
2019-01-14T01:45:15.591Z,3.60
2019-01-14T01:47:45.914Z,2.97
2019-01-14T01:50:19.290Z,2.53
2019-01-14T01:52:50.456Z,2.90
2019-01-14T01:55:29.095Z,3.13
2019-01-14T01:58:04.539Z,3.63
2019-01-14T02:00:36.313Z,4.63
2019-01-14T02:03:09.039Z,3.10
2019-01-14T02:05:43.451Z,3.00
2019-01-14T02:08:13.704Z,4.97
2019-01-14T02:10:44.762Z,3.40
2019-01-14T02:13:22.663Z,15.87
2019-01-14T02:16:00.401Z,7.23
2019-01-14T02:18:33.894Z,2.73
2019-01-14T02:21:04.117Z,3.23
2019-01-14T02:23:34.284Z,3.20
2019-01-14T02:26:04.503Z,3.37
2019-01-14T02:28:34.857Z,3.17
2019-01-14T02:31:05.872Z,3.40
2019-01-14T02:33:36.187Z,2.90
2019-01-14T02:36:14.345Z,3.40
2019-01-14T02:38:45.304Z,3.20
2019-01-14T02:41:20.733Z,2.90
2019-01-14T02:43:51.760Z,3.93
2019-01-14T02:46:22.591Z,2.77
2019-01-14T02:48:53.599Z,3.20
2019-01-14T02:51:42.810Z,3.90
2019-01-14T02:54:13.487Z,3.73
2019-01-14T02:56:48.011Z,3.40
2019-01-14T02:59:18.133Z,3.60
2019-01-14T03:01:49.437Z,3.20
2019-01-14T03:04:20.255Z,3.37
2019-01-14T03:06:57.761Z,3.40
2019-01-14T03:09:25.593Z,3.00
2019-01-14T03:11:56.509Z,3.77
2019-01-14T03:14:26.702Z,3.30
2019-01-14T03:17:01.338Z,3.40
2019-01-14T03:19:32.994Z,3.80
2019-01-14T03:22:04.853Z,3.30
2019-01-14T03:24:39.756Z,3.17
2019-01-14T03:27:17.542Z,3.40
2019-01-14T03:29:59.964Z,2.80
2019-01-14T03:32:30.230Z,3.30
2019-01-14T03:35:01.524Z,3.50
2019-01-14T03:37:35.268Z,3.50
2019-01-14T03:40:16.569Z,3.27
2019-01-14T03:42:47.963Z,3.40
2019-01-14T03:45:18.817Z,4.43
2019-01-14T03:47:49.236Z,3.80
2019-01-14T03:50:22.973Z,3.93
2019-01-14T03:52:54.049Z,3.20
2019-01-14T03:55:37.289Z,2.90
2019-01-14T03:58:07.425Z,3.20
2019-01-14T04:00:38.828Z,3.23
2019-01-14T04:03:08.814Z,3.00
2019-01-14T04:05:39.062Z,4.10
2019-01-14T04:08:09.034Z,3.17
2019-01-14T04:10:39.391Z,2.80
2019-01-14T04:13:09.993Z,3.23
2019-01-14T04:15:47.326Z,2.80
2019-01-14T04:18:18.561Z,3.73
2019-01-14T04:20:49.951Z,3.10
2019-01-14T04:23:21.608Z,3.57
2019-01-14T04:25:52.743Z,2.60
2019-01-14T04:28:23.043Z,3.20
2019-01-14T04:30:53.452Z,3.20
2019-01-14T04:33:35.980Z,2.77
2019-01-14T04:36:06.473Z,2.93
2019-01-14T04:38:37.166Z,3.43
2019-01-14T04:41:07.017Z,3.00
2019-01-14T04:43:37.106Z,3.10
2019-01-14T04:46:13.802Z,2.50
2019-01-14T04:48:51.405Z,2.63
2019-01-14T04:51:21.626Z,2.90
2019-01-14T04:53:51.932Z,2.90
2019-01-14T04:56:24.571Z,3.37
2019-01-14T04:58:54.812Z,3.10
2019-01-14T05:01:25.098Z,2.60
2019-01-14T05:03:55.143Z,3.60
2019-01-14T05:06:25.333Z,3.03
2019-01-14T05:08:55.923Z,2.57
2019-01-14T05:11:26.183Z,5.93
2019-01-14T05:13:56.193Z,3.33
2019-01-14T05:16:27.244Z,3.10
2019-01-14T05:18:57.483Z,2.60
2019-01-14T05:21:42.459Z,3.07
2019-01-14T05:24:06.714Z,4.40
2019-01-14T05:26:41.285Z,4.10
2019-01-14T05:29:14.840Z,3.77
2019-01-14T05:31:45.118Z,3.53
2019-01-14T05:34:15.786Z,4.80
2019-01-14T05:36:46.243Z,4.63
2019-01-14T05:39:16.096Z,3.40
2019-01-14T05:41:46.382Z,3.60
2019-01-14T05:44:18.657Z,3.63
2019-01-14T05:46:49.852Z,3.50
2019-01-14T05:49:27.064Z,3.07
2019-01-14T05:51:57.277Z,5.37
2019-01-14T05:54:27.676Z,3.77
2019-01-14T05:56:58.668Z,4.40
2019-01-14T05:59:29.004Z,6.17
2019-01-14T06:01:59.295Z,3.80
2019-01-14T06:04:30.427Z,4.70
2019-01-14T06:07:00.619Z,3.50
2019-01-14T06:09:30.698Z,4.40
2019-01-14T06:12:00.965Z,3.63
2019-01-14T06:14:31.162Z,3.60
2019-01-14T06:17:02.149Z,4.40
2019-01-14T06:19:33.552Z,5.20
2019-01-14T06:22:04.688Z,4.50
2019-01-14T06:24:34.943Z,7.00
2019-01-14T06:27:13.191Z,4.80
2019-01-14T06:29:44.510Z,4.50
2019-01-14T06:32:14.741Z,4.63
2019-01-14T06:34:44.791Z,3.00
2019-01-14T06:37:15.499Z,3.67
2019-01-14T06:39:46.908Z,4.00
2019-01-14T06:42:18.165Z,3.23
2019-01-14T06:44:48.643Z,4.50
2019-01-14T06:47:18.529Z,4.50
2019-01-14T06:49:48.761Z,5.80
2019-01-14T06:52:28.712Z,5.10
2019-01-14T06:55:01.425Z,6.30
2019-01-14T06:57:31.626Z,5.30
2019-01-14T07:00:02.506Z,3.77
2019-01-14T07:02:32.751Z,8.53
2019-01-14T07:05:04.022Z,8.10
2019-01-14T07:07:34.379Z,4.07
2019-01-14T07:10:06.509Z,4.30
2019-01-14T07:12:37.707Z,6.70
2019-01-14T07:15:08.206Z,12.70
2019-01-14T07:17:38.436Z,8.67
2019-01-14T07:20:09.549Z,13.53
2019-01-14T07:22:39.769Z,14.00
2019-01-14T07:25:09.812Z,10.43
2019-01-14T07:27:40.038Z,5.63
2019-01-14T07:30:11.608Z,12.00
2019-01-14T07:32:43.038Z,5.50
2019-01-14T07:35:13.259Z,4.60
2019-01-14T07:37:58.601Z,5.47
2019-01-14T07:40:29.436Z,5.70
2019-01-14T07:42:59.666Z,9.13
2019-01-14T07:45:30.810Z,4.90
2019-01-14T07:48:01.005Z,6.23
2019-01-14T07:50:32.063Z,7.17
2019-01-14T07:53:02.211Z,5.47
2019-01-14T07:55:35.760Z,4.90
2019-01-14T07:58:06.626Z,6.90
2019-01-14T08:00:37.171Z,15.67
2019-01-14T08:03:07.610Z,7.00
2019-01-14T08:05:38.967Z,9.30
2019-01-14T08:08:13.994Z,10.40
2019-01-14T08:10:42.376Z,8.37
2019-01-14T08:13:12.272Z,13.30
2019-01-14T08:15:42.517Z,12.33
2019-01-14T08:18:20.380Z,8.90
2019-01-14T08:20:51.423Z,5.60
2019-01-14T08:23:22.069Z,3.80
2019-01-14T08:25:53.166Z,6.17
2019-01-14T08:28:28.249Z,10.47
2019-01-14T08:31:15.881Z,3.90
2019-01-14T08:33:46.247Z,8.30
2019-01-14T08:36:16.581Z,8.03
2019-01-14T08:38:47.226Z,4.80
2019-01-14T08:41:18.296Z,6.60
2019-01-14T08:43:53.229Z,3.60
2019-01-14T08:46:28.030Z,3.60
2019-01-14T08:48:59.662Z,3.47
2019-01-14T08:51:30.135Z,4.50
2019-01-14T08:54:00.665Z,5.17
2019-01-14T08:56:31.398Z,6.60
2019-01-14T08:59:02.440Z,4.33
2019-01-14T09:01:40.391Z,7.73
2019-01-14T09:04:10.869Z,9.13
2019-01-14T09:06:40.890Z,4.20
2019-01-14T09:09:11.141Z,6.57
2019-01-14T09:11:41.375Z,5.17
2019-01-14T09:14:11.300Z,6.10
2019-01-14T09:19:22.821Z,5.87
2019-01-14T09:21:53.397Z,4.43
2019-01-14T09:24:23.707Z,3.40
2019-01-14T09:26:54.590Z,3.73
2019-01-14T09:29:32.384Z,4.13
2019-01-14T09:32:03.188Z,4.40
2019-01-14T09:34:34.393Z,3.50
2019-01-14T09:37:04.843Z,3.17
2019-01-14T09:39:36.658Z,3.20
2019-01-14T09:42:07.404Z,9.00
2019-01-14T09:44:38.078Z,3.53
2019-01-14T09:47:08.586Z,4.50
2019-01-14T09:49:39.170Z,7.87
2019-01-14T09:52:09.458Z,3.43
2019-01-14T09:54:41.148Z,9.20
2019-01-14T09:57:11.526Z,7.30
2019-01-14T09:59:42.017Z,3.80
2019-01-14T10:02:12.180Z,6.80
2019-01-14T10:04:43.296Z,5.67
2019-01-14T10:07:13.513Z,9.53
2019-01-14T10:09:52.152Z,6.40
2019-01-14T10:12:22.911Z,5.23
2019-01-14T10:14:53.376Z,7.23
2019-01-14T10:17:26.404Z,12.03
2019-01-14T10:19:56.715Z,8.20
2019-01-14T10:22:29.451Z,4.30
2019-01-14T10:24:59.822Z,24.83
2019-01-14T10:27:31.507Z,6.80
2019-01-14T10:30:01.815Z,6.83
2019-01-14T10:32:32.698Z,23.83
2019-01-14T10:35:03.159Z,7.43
2019-01-14T10:37:33.711Z,10.87
2019-01-14T10:40:05.368Z,11.47
2019-01-14T10:42:36.373Z,28.10
2019-01-14T10:45:08.984Z,15.03
2019-01-14T10:47:39.262Z,19.60
2019-01-14T10:50:10.629Z,12.90
2019-01-14T10:52:41.060Z,5.83
2019-01-14T10:55:16.775Z,16.67
2019-01-14T10:57:47.634Z,13.03
2019-01-14T11:00:21.100Z,8.93
2019-01-14T11:02:52.671Z,10.43
2019-01-14T11:05:25.758Z,7.60
2019-01-14T11:07:58.106Z,5.13
2019-01-14T11:10:28.797Z,6.37
2019-01-14T11:12:59.028Z,4.13
2019-01-14T11:15:29.436Z,7.40
2019-01-14T11:18:00.644Z,6.20
2019-01-14T11:20:36.378Z,7.37
2019-01-14T11:23:06.772Z,13.90
2019-01-14T11:25:38.848Z,14.20
2019-01-14T11:28:11.369Z,19.20
2019-01-14T11:30:43.226Z,9.53
2019-01-14T11:33:13.578Z,8.87
2019-01-14T11:35:43.875Z,10.70
2019-01-14T11:38:32.035Z,11.47
2019-01-14T11:41:02.353Z,6.70
2019-01-14T11:43:33.474Z,6.73
2019-01-14T11:46:11.189Z,12.00
2019-01-14T11:48:41.406Z,9.03
2019-01-14T11:51:29.812Z,8.33
2019-01-14T11:54:00.721Z,5.50
2019-01-14T11:56:30.959Z,6.63
2019-01-14T11:59:01.467Z,4.20
2019-01-14T12:01:31.931Z,6.43
2019-01-14T12:04:02.286Z,13.00
2019-01-14T12:06:32.814Z,9.40
2019-01-14T12:09:12.166Z,13.30
2019-01-14T12:11:39.504Z,8.37
2019-01-14T12:14:10.194Z,7.30
2019-01-14T12:16:40.689Z,5.33
2019-01-14T12:19:20.412Z,13.33
2019-01-14T12:21:50.820Z,5.77
2019-01-14T12:24:22.532Z,3.90
2019-01-14T12:26:54.207Z,4.57
2019-01-14T12:29:24.515Z,5.07
2019-01-14T12:31:58.223Z,8.27
2019-01-14T12:34:28.737Z,12.40
2019-01-14T12:37:00.218Z,5.83
2019-01-14T12:39:31.403Z,7.63
2019-01-14T12:42:01.715Z,6.57
2019-01-14T12:44:32.236Z,6.40
2019-01-14T12:47:03.442Z,8.90
2019-01-14T12:49:33.777Z,9.17
2019-01-14T12:52:04.455Z,5.80
2019-01-14T12:54:34.932Z,5.40
2019-01-14T12:57:05.392Z,5.97
2019-01-14T12:59:35.853Z,9.97
2019-01-14T13:02:07.377Z,8.30
2019-01-14T13:04:37.833Z,8.10
2019-01-14T13:07:13.465Z,33.18
2019-01-14T13:09:45.356Z,9.47
2019-01-14T13:12:16.013Z,7.60
2019-01-14T13:14:46.220Z,4.20
2019-01-14T13:17:16.080Z,6.17
2019-01-14T13:19:47.108Z,6.30
2019-01-14T13:22:17.095Z,6.87
2019-01-14T13:24:48.343Z,5.93
2019-01-14T13:27:18.928Z,4.10
2019-01-14T13:29:50.004Z,4.90
2019-01-14T13:32:20.578Z,5.10
2019-01-14T13:34:50.902Z,7.17
2019-01-14T13:37:21.339Z,9.13
2019-01-14T13:39:52.668Z,6.37
2019-01-14T13:42:27.008Z,5.77
2019-01-14T13:44:57.184Z,5.17
2019-01-14T13:47:28.205Z,3.93
2019-01-14T13:49:59.373Z,4.57
2019-01-14T13:52:29.472Z,9.33
2019-01-14T13:55:00.236Z,8.83
2019-01-14T13:57:30.504Z,5.30
2019-01-14T14:00:03.449Z,5.90
2019-01-14T14:02:33.790Z,5.67
2019-01-14T14:05:06.406Z,10.40
2019-01-14T14:07:48.613Z,10.13
2019-01-14T14:10:23.187Z,9.47
2019-01-14T14:12:53.351Z,15.10
2019-01-14T14:15:23.799Z,21.70
2019-01-14T14:17:54.149Z,13.70
2019-01-14T14:20:24.946Z,10.33
2019-01-14T14:22:56.166Z,6.83
2019-01-14T14:25:26.597Z,7.27
2019-01-14T14:27:57.059Z,9.00
2019-01-14T14:30:35.105Z,7.03
2019-01-14T14:33:06.931Z,9.20
2019-01-14T14:35:39.926Z,26.30
2019-01-14T14:38:10.506Z,7.03
2019-01-14T14:40:43.764Z,5.13
2019-01-14T14:43:13.671Z,6.40
2019-01-14T14:45:44.046Z,7.80
2019-01-14T14:48:14.223Z,9.00
2019-01-14T14:50:45.537Z,12.50
2019-01-14T14:53:15.642Z,9.50
2019-01-14T14:55:46.045Z,14.40
2019-01-14T14:58:18.519Z,40.17
2019-01-14T15:00:48.947Z,12.40
2019-01-14T15:03:19.380Z,12.00
2019-01-14T15:05:49.855Z,8.43
2019-01-14T15:08:20.337Z,6.57
2019-01-14T15:10:50.589Z,12.30
2019-01-14T15:13:20.730Z,10.93
2019-01-14T15:15:51.113Z,6.87
2019-01-14T15:18:21.235Z,6.57
2019-01-14T15:20:51.647Z,8.13
2019-01-14T15:23:21.888Z,8.60
2019-01-14T15:25:52.318Z,6.50
2019-01-14T15:28:23.106Z,7.47
2019-01-14T15:30:53.466Z,9.17
2019-01-14T15:33:27.544Z,6.77
2019-01-14T15:35:57.958Z,5.90
2019-01-14T15:38:29.069Z,10.93
2019-01-14T15:40:59.604Z,5.53
2019-01-14T15:43:30.479Z,6.20
2019-01-14T15:46:01.468Z,25.73
2019-01-14T15:48:31.780Z,10.67
2019-01-14T15:51:09.550Z,16.43
2019-01-14T15:53:40.752Z,7.30
2019-01-14T15:56:11.316Z,20.20
2019-01-14T15:58:42.507Z,9.87
2019-01-14T16:01:32.770Z,8.40
2019-01-14T16:04:03.125Z,24.43
2019-01-14T16:06:33.486Z,13.87
2019-01-14T16:09:04.616Z,4.33
2019-01-14T16:11:37.949Z,25.07
2019-01-14T16:14:09.192Z,5.90
2019-01-14T16:16:39.484Z,5.43
2019-01-14T16:19:09.651Z,10.70
2019-01-14T16:21:41.374Z,20.40
2019-01-14T16:24:12.707Z,13.10
2019-01-14T16:26:44.364Z,42.90
2019-01-14T16:29:14.722Z,19.60
2019-01-14T16:31:45.090Z,8.33
2019-01-14T16:34:15.081Z,17.20
2019-01-14T16:36:46.377Z,6.30
2019-01-14T16:39:16.452Z,6.67
2019-01-14T16:41:49.754Z,9.47
2019-01-14T16:44:20.165Z,9.17
2019-01-14T16:46:50.559Z,5.80
2019-01-14T16:49:20.831Z,15.07
2019-01-14T16:51:51.556Z,11.80
2019-01-14T16:54:21.989Z,13.27
2019-01-14T16:56:52.581Z,7.97
2019-01-14T16:59:23.924Z,10.80
2019-01-14T17:02:02.268Z,9.67
2019-01-14T17:04:34.843Z,10.23
2019-01-14T17:07:06.479Z,9.33
2019-01-14T17:09:37.661Z,13.23
2019-01-14T17:12:09.997Z,10.50
2019-01-14T17:14:40.243Z,12.47
2019-01-14T17:17:11.078Z,10.93
2019-01-14T17:19:41.435Z,17.63
2019-01-14T17:22:11.521Z,18.17
2019-01-14T17:24:42.034Z,12.57
2019-01-14T17:27:13.121Z,14.10
2019-01-14T17:29:43.429Z,14.00
2019-01-14T17:32:13.658Z,12.67
2019-01-14T17:34:49.417Z,13.40
2019-01-14T17:37:24.116Z,18.60
2019-01-14T17:39:55.214Z,13.33
2019-01-14T17:42:25.588Z,17.10
2019-01-14T17:44:55.981Z,15.20
2019-01-14T17:47:26.614Z,18.00
2019-01-14T17:49:57.025Z,20.37
2019-01-14T17:52:27.288Z,16.87
2019-01-14T17:54:57.473Z,21.20
2019-01-14T17:57:27.899Z,17.87
2019-01-14T17:59:58.382Z,15.33
2019-01-14T18:02:28.646Z,19.13
2019-01-14T18:04:59.247Z,20.40
2019-01-14T18:07:31.065Z,19.60
2019-01-14T18:10:06.949Z,21.37
2019-01-14T18:12:37.265Z,17.43
2019-01-14T18:15:25.168Z,23.70
2019-01-14T18:17:56.171Z,13.27
2019-01-14T18:20:26.809Z,16.60
2019-01-14T18:22:57.937Z,15.53
2019-01-14T18:25:32.951Z,18.07
2019-01-14T18:28:14.728Z,15.43
2019-01-14T18:30:45.372Z,15.63
2019-01-14T18:33:15.522Z,14.83
2019-01-14T18:35:54.156Z,16.50
2019-01-14T18:38:24.317Z,25.53
2019-01-14T18:40:57.070Z,19.85
2019-01-14T18:43:27.670Z,17.70
2019-01-14T18:45:58.887Z,17.77
2019-01-14T18:48:29.354Z,20.23
2019-01-14T18:50:59.598Z,22.03
2019-01-14T18:53:30.035Z,24.00
2019-01-14T18:56:00.279Z,19.57
2019-01-14T18:58:30.792Z,25.13
2019-01-14T19:01:00.954Z,19.60
2019-01-14T19:03:31.180Z,21.73
2019-01-14T19:06:01.407Z,21.00
2019-01-14T19:08:31.805Z,18.87
2019-01-14T19:13:58.115Z,21.87
2019-01-14T19:16:34.478Z,23.10
2019-01-14T19:19:28.058Z,26.43
2019-01-14T19:21:58.551Z,23.50
2019-01-14T19:24:29.966Z,28.13
2019-01-14T19:27:00.999Z,29.00
2019-01-14T19:29:31.283Z,27.83
2019-01-14T19:32:01.527Z,30.20
2019-01-14T19:34:45.248Z,20.20
2019-01-14T19:37:24.425Z,25.80
2019-01-14T19:40:02.626Z,20.60
2019-01-14T19:42:32.934Z,31.07
2019-01-14T19:45:03.112Z,25.60
2019-01-14T19:47:33.312Z,25.83
2019-01-14T19:50:03.635Z,26.50
2019-01-14T19:52:33.611Z,28.30
2019-01-14T19:55:19.269Z,28.33
2019-01-14T19:57:57.802Z,26.83
2019-01-14T20:00:35.201Z,32.37
2019-01-14T20:03:05.725Z,27.37
2019-01-14T20:05:36.171Z,40.37
2019-01-14T20:08:06.575Z,31.90
2019-01-14T20:10:37.820Z,35.50
2019-01-14T20:13:08.349Z,42.53
2019-01-14T20:15:38.693Z,40.47
2019-01-14T20:18:09.827Z,40.70
2019-01-14T20:20:40.150Z,33.73
2019-01-14T20:23:10.110Z,34.80
2019-01-14T20:25:40.353Z,41.30
2019-01-14T20:28:10.440Z,39.83
2019-01-14T20:30:50.185Z,40.30
2019-01-14T20:33:31.303Z,28.03
2019-01-14T20:36:01.575Z,36.87
2019-01-14T20:38:32.279Z,38.77
2019-01-14T20:41:03.453Z,34.40
2019-01-14T20:43:34.618Z,28.17
2019-01-14T20:46:06.345Z,33.90
2019-01-14T20:48:36.537Z,40.50
2019-01-14T20:51:07.476Z,35.00
2019-01-14T20:53:38.081Z,38.13
2019-01-14T20:56:09.453Z,32.00
2019-01-14T20:58:39.749Z,35.97
2019-01-14T21:01:10.744Z,27.73
2019-01-14T21:03:40.936Z,30.33
2019-01-14T21:06:11.058Z,33.57
2019-01-14T21:08:41.182Z,24.03
2019-01-14T21:11:11.250Z,30.17
2019-01-14T21:13:41.634Z,24.00
2019-01-14T21:16:12.476Z,26.77
2019-01-14T21:18:44.153Z,28.33
2019-01-14T21:21:15.048Z,33.60
2019-01-14T21:23:45.561Z,28.60
2019-01-14T21:26:25.039Z,28.77
2019-01-14T21:28:55.306Z,27.40
2019-01-14T21:31:25.696Z,30.10
2019-01-14T21:33:56.158Z,30.40
2019-01-14T21:36:26.074Z,25.50
2019-01-14T21:38:59.920Z,23.23
2019-01-14T21:41:31.434Z,26.43
2019-01-14T21:44:09.538Z,24.23
2019-01-14T21:46:41.017Z,26.60
2019-01-14T21:49:12.128Z,32.77
2019-01-14T21:51:44.327Z,28.50
2019-01-14T21:54:15.150Z,27.97
2019-01-14T21:56:46.546Z,33.53
2019-01-14T21:59:16.747Z,30.97
2019-01-14T22:01:48.019Z,28.93
2019-01-14T22:04:18.361Z,34.37
2019-01-14T22:06:49.499Z,33.90
2019-01-14T22:09:19.575Z,27.00
2019-01-14T22:11:50.059Z,28.43
2019-01-14T22:14:20.233Z,31.60
2019-01-14T22:16:51.469Z,26.47
2019-01-14T22:19:28.551Z,24.90
2019-01-14T22:22:00.382Z,26.40
2019-01-14T22:24:31.453Z,26.23
2019-01-14T22:27:01.791Z,25.97
2019-01-14T22:29:31.926Z,22.57
2019-01-14T22:32:02.646Z,24.70
2019-01-14T22:34:35.379Z,19.50
2019-01-14T22:37:07.191Z,21.07
2019-01-14T22:39:41.519Z,20.33
2019-01-14T22:42:12.098Z,18.07
2019-01-14T22:44:48.529Z,16.37
2019-01-14T22:47:19.116Z,25.47
2019-01-14T22:49:49.239Z,23.00
2019-01-14T22:52:19.172Z,20.83
2019-01-14T22:54:50.562Z,22.00
2019-01-14T22:57:25.823Z,19.27
2019-01-14T23:00:04.697Z,44.97
2019-01-14T23:02:36.682Z,21.93
2019-01-14T23:05:08.004Z,21.87
2019-01-14T23:07:38.823Z,23.37
2019-01-14T23:10:17.870Z,18.98
2019-01-14T23:12:51.401Z,28.57
2019-01-14T23:15:22.720Z,30.47
2019-01-14T23:17:54.055Z,22.47
2019-01-14T23:20:25.592Z,20.92
2019-01-14T23:22:56.922Z,19.10
2019-01-14T23:25:29.760Z,27.48
2019-01-14T23:28:01.237Z,21.87
2019-01-14T23:30:31.783Z,21.03
2019-01-14T23:33:02.503Z,22.57
2019-01-14T23:35:33.677Z,21.20
2019-01-14T23:38:05.796Z,27.83
2019-01-14T23:40:45.905Z,20.50
2019-01-14T23:43:20.063Z,20.33
2019-01-14T23:45:52.108Z,24.03
2019-01-14T23:48:22.545Z,21.80
2019-01-14T23:50:53.940Z,24.23
2019-01-14T23:53:24.352Z,18.93
2019-01-14T23:55:55.432Z,23.77
2019-01-14T23:58:26.525Z,23.53
